Aeroporto :
LOGIN :

Iscrizione | Disclaimer

   EN    FR    IT 

 










Sommario :    VFR   VFR Marginale   IFR   IFR Intensivo   IFR Molto Intensivo
Visibilità : 
Base nubi : 
>= 8 km
>= 3000ft
5 / 8 km
1000 / 3000 ft
1500m / 5 km
500 / 1000 ft
800 / 1500m
200 / 500 ft
< 800m
< 200 ft
Simboli :   Temporali  Nebbia  Neve Forte  Precipitazioni Forti  Vento > 20 kt
SIGMETs :   Varie  Temporali  Ghiacco  Turbolenza  Onda orograficha  Ceneri Vulcaniche






- Altitudine del aeroporto : 2054 ft
- Codice IATA : RRS


ENRO - Røros

ULTIMO METAR :
  • 122320Z AUTO 14006KT 080V200 9999NDV OVC021/// M00/M03 Q0994

METARs OBSOLETI :
  • 122250Z AUTO 17010KT 130V210 9999NDV OVC021/// 00/M03 Q0994
  • 122220Z AUTO 15011KT 9999NDV SCT023/// M00/M03 Q0994
  • 122150Z AUTO 17012KT 9999NDV SCT025/// M00/M03 Q0994
  • 122120Z AUTO 13004KT 090V200 9999NDV FEW012/// BKN027/// OVC032/// M01/M02 Q0994
  • 122050Z AUTO 12006KT 9999NDV FEW007/// OVC012/// M01/M01 Q0994

Previsioni scadute.



MetMap, La meteo Aeronautica in un colpo d'occhio ! - Copyright ORBIFLY Dicembre 2007 - Disclaimer

ORBIFLY MET'MAP TEAM :

Programmazione e sviluppo : Alexandra Zaïnal
Concezione e sviluppo : Baudouin d'Aumeries
Co-Programmazione e sviluppo : Marc-Olivier Méhu
Supporto tecnico e logistico : Manuel Goepfert
Aiuto per la traduzione : Arnaldo La Scala

Contatto : metmap@orbifly.com




FONTI E CREDITI :

   NOAA